Time;durP1;ratioP1;P1;durP2;ratioP2;P2;SDS_P1;SDS_P2;PMS_P1;PMS_P2;Temp;Humidity;BMP_temperature;BMP_pressure;BME280_temperature;BME280_humidity;BME280_pressure;Samples;Min_cycle;Max_cycle;Signal;HPM_P1;HPM_P2
2021/12/24 00:00:09;;;;;;;5.35;3.65;;;19.20;44.70;;;;;;5055355;28;20021;-62
2021/12/24 00:02:35;;;;;;;6.57;3.50;;;19.30;44.80;;;;;;5055386;28;20471;-61
2021/12/24 00:05:01;;;;;;;3.78;3.03;;;19.20;44.70;;;;;;5037548;28;20027;-61
2021/12/24 00:07:27;;;;;;;3.88;3.05;;;19.20;44.80;;;;;;5055440;28;20452;-61
2021/12/24 00:09:52;;;;;;;4.43;3.13;;;19.20;44.80;;;;;;5055333;28;20022;-61
2021/12/24 00:12:20;;;;;;;3.25;2.95;;;19.20;44.80;;;;;;5037374;28;20487;-61
2021/12/24 00:14:51;;;;;;;3.80;3.03;;;19.20;44.80;;;;;;5037939;28;20024;-62
2021/12/24 00:17:24;;;;;;;5.40;2.88;;;19.20;45.50;;;;;;5054851;28;20025;-61
2021/12/24 00:36:13;;;;;;;3.95;2.88;;;19.10;45.10;;;;;;5056260;28;20514;-63
2021/12/24 00:38:40;;;;;;;3.55;3.00;;;19.10;45.10;;;;;;5056887;28;20037;-63
2021/12/24 00:41:06;;;;;;;3.03;2.72;;;19.10;45.10;;;;;;5056500;28;20017;-62
2021/12/24 00:43:32;;;;;;;4.03;2.88;;;19.10;45.10;;;;;;5056554;28;20091;-63
2021/12/24 00:45:58;;;;;;;4.90;3.17;;;19.10;45.10;;;;;;5056419;28;20495;-63
2021/12/24 00:48:25;;;;;;;6.40;2.90;;;19.10;45.10;;;;;;5056618;28;20029;-63
2021/12/24 00:56:11;;;;;;;3.53;2.92;;;19.10;45.20;;;;;;5056351;28;20060;-64
2021/12/24 00:58:38;;;;;;;3.63;2.92;;;19.10;45.30;;;;;;5055525;28;20075;-62
2021/12/24 01:01:08;;;;;;;3.47;2.90;;;19.10;45.20;;;;;;5056781;28;20017;-63
2021/12/24 01:03:33;;;;;;;6.05;2.70;;;19.10;45.30;;;;;;5056630;28;20024;-62
2021/12/24 01:05:59;;;;;;;3.40;2.80;;;19.10;45.30;;;;;;5056079;28;20402;-62
2021/12/24 01:08:25;;;;;;;3.83;2.92;;;19.00;45.30;;;;;;5038457;28;20031;-62
2021/12/24 01:10:56;;;;;;;3.15;2.60;;;19.00;45.30;;;;;;5038563;28;20023;-62
2021/12/24 01:13:23;;;;;;;3.97;3.25;;;19.00;45.40;;;;;;5055695;28;20059;-62
2021/12/24 01:16:19;;;;;;;4.45;3.00;;;19.00;45.40;;;;;;5038254;28;20024;-62
2021/12/24 01:19:02;;;;;;;3.03;2.60;;;19.00;45.40;;;;;;5054147;28;20021;-62
2021/12/24 01:21:54;;;;;;;3.75;2.95;;;19.00;45.40;;;;;;5055418;28;20033;-62
2021/12/24 01:24:31;;;;;;;2.83;2.30;;;19.00;45.50;;;;;;5043798;28;20083;-62
2021/12/24 01:27:14;;;;;;;2.92;2.60;;;19.00;45.50;;;;;;5039936;28;20028;-63
2021/12/24 01:29:58;;;;;;;3.53;2.88;;;19.00;45.50;;;;;;5055767;28;20037;-62
2021/12/24 01:38:13;;;;;;;2.95;2.65;;;19.00;45.60;;;;;;5055854;28;20055;-62
2021/12/24 01:43:21;;;;;;;4.07;2.72;;;18.90;45.50;;;;;;5053980;28;20056;-62
2021/12/24 01:45:49;;;;;;;3.58;2.78;;;18.90;45.60;;;;;;5053641;28;20013;-62
2021/12/24 01:48:18;;;;;;;4.85;3.25;;;18.90;45.60;;;;;;5053353;28;20471;-62
2021/12/24 01:50:47;;;;;;;3.67;2.63;;;18.90;45.70;;;;;;5053370;28;20074;-60
2021/12/24 01:53:17;;;;;;;3.85;2.83;;;18.90;45.70;;;;;;5053722;28;20020;-62
2021/12/24 01:55:43;;;;;;;3.10;2.80;;;18.90;45.70;;;;;;5053867;28;20475;-62
2021/12/24 01:58:09;;;;;;;3.00;2.70;;;18.90;45.70;;;;;;5054528;28;20028;-62
2021/12/24 02:00:41;;;;;;;3.30;2.75;;;18.90;45.70;;;;;;5054556;28;20104;-62
2021/12/24 02:03:07;;;;;;;;;;;18.90;45.70;;;;;;5037586;28;20040;-62
2021/12/24 02:05:32;;;;;;;3.92;2.58;;;18.90;45.80;;;;;;5055488;28;19908;-62
2021/12/24 02:07:59;;;;;;;3.50;2.80;;;18.90;45.70;;;;;;5053980;28;20036;-61
2021/12/24 02:10:25;;;;;;;2.97;2.60;;;18.90;45.80;;;;;;5053681;28;20543;-61
2021/12/24 02:12:52;;;;;;;3.60;3.10;;;18.90;45.80;;;;;;5054400;28;20075;-62
2021/12/24 02:15:31;;;;;;;3.72;2.92;;;18.80;45.80;;;;;;5053881;28;20022;-62
2021/12/24 02:28:40;;;;;;;3.22;2.70;;;18.80;45.90;;;;;;5053562;28;20040;-62
2021/12/24 02:31:08;;;;;;;3.97;2.88;;;18.80;45.90;;;;;;5053613;28;20044;-63
2021/12/24 02:33:34;;;;;;;3.90;2.70;;;18.80;46.00;;;;;;5053430;28;20009;-63
2021/12/24 02:36:01;;;;;;;2.85;2.50;;;18.80;46.00;;;;;;5053127;28;20041;-64
2021/12/24 02:38:27;;;;;;;4.18;2.53;;;18.80;46.00;;;;;;5034893;28;20439;-62
2021/12/24 02:40:52;;;;;;;3.42;2.60;;;18.80;46.00;;;;;;5035017;28;20024;-61
2021/12/24 02:43:21;;;;;;;2.58;2.38;;;18.80;46.00;;;;;;5052514;28;20032;-62
2021/12/24 02:45:49;;;;;;;3.78;2.67;;;18.80;46.00;;;;;;5052811;28;20072;-63
2021/12/24 02:56:23;;;;;;;3.63;2.60;;;18.80;46.10;;;;;;5052888;28;20155;-61
2021/12/24 02:58:50;;;;;;;2.60;2.40;;;18.70;46.10;;;;;;5053203;28;20029;-62
2021/12/24 03:01:18;;;;;;;3.03;2.60;;;18.70;46.10;;;;;;5053371;28;20016;-62
2021/12/24 03:03:48;;;;;;;2.50;2.22;;;18.70;46.10;;;;;;5053311;28;20075;-63
2021/12/24 03:06:17;;;;;;;3.45;2.65;;;18.70;46.20;;;;;;5053797;28;20092;-64
2021/12/24 03:08:43;;;;;;;3.00;2.67;;;18.70;46.20;;;;;;5053903;28;20033;-63
2021/12/24 03:11:10;;;;;;;3.65;2.50;;;18.70;46.20;;;;;;5053026;28;20060;-62
2021/12/24 03:13:36;;;;;;;4.25;2.47;;;18.70;46.20;;;;;;5053072;28;20018;-63
2021/12/24 03:16:02;;;;;;;3.30;2.70;;;18.70;46.20;;;;;;5036571;28;20096;-63
2021/12/24 03:18:30;;;;;;;2.58;2.33;;;18.70;46.20;;;;;;5055078;28;20045;-63
2021/12/24 03:26:34;;;;;;;3.55;2.53;;;18.70;46.90;;;;;;5024023;28;20495;-61
2021/12/24 03:29:00;;;;;;;2.70;2.30;;;18.70;46.30;;;;;;5056777;28;20036;-62
2021/12/24 03:31:25;;;;;;;3.35;2.58;;;18.70;46.30;;;;;;5038447;28;20524;-62
2021/12/24 03:33:53;;;;;;;3.40;2.78;;;18.70;46.40;;;;;;5055802;28;20031;-63
2021/12/24 03:36:23;;;;;;;4.40;2.80;;;18.70;46.40;;;;;;5055423;28;20541;-62
2021/12/24 03:38:49;;;;;;;2.72;2.40;;;18.70;46.40;;;;;;5055932;28;20037;-63
2021/12/24 03:41:16;;;;;;;4.05;2.70;;;18.70;46.50;;;;;;5038078;28;20104;-62
2021/12/24 03:43:42;;;;;;;3.17;2.45;;;18.70;46.50;;;;;;5037596;28;20025;-62
2021/12/24 03:46:13;;;;;;;3.65;2.38;;;18.70;46.40;;;;;;5055769;28;20025;-62
2021/12/24 03:57:07;;;;;;;3.35;2.35;;;18.60;46.60;;;;;;4974353;28;20191;-62
2021/12/24 03:59:33;;;;;;;2.55;2.33;;;18.60;46.60;;;;;;4974437;28;20062;-62
2021/12/24 04:01:58;;;;;;;3.22;2.38;;;18.60;46.60;;;;;;4974367;28;20035;-62
2021/12/24 04:04:25;;;;;;;2.92;2.35;;;18.60;46.60;;;;;;4974579;28;20174;-63
2021/12/24 04:06:51;;;;;;;3.13;2.38;;;18.60;46.60;;;;;;4974366;28;20089;-63
2021/12/24 04:09:17;;;;;;;3.03;2.25;;;18.60;46.60;;;;;;4974494;28;20571;-63
2021/12/24 04:11:44;;;;;;;2.85;2.22;;;18.60;46.60;;;;;;4974619;28;20052;-62
2021/12/24 04:14:09;;;;;;;2.92;2.33;;;18.60;46.70;;;;;;4974738;28;20042;-63
2021/12/24 04:16:36;;;;;;;3.10;2.40;;;18.60;46.60;;;;;;4974747;28;20084;-63
2021/12/24 04:26:56;;;;;;;3.05;2.42;;;18.60;46.70;;;;;;4989011;28;20165;-63
2021/12/24 04:29:22;;;;;;;2.85;2.20;;;18.60;46.70;;;;;;5054660;28;20108;-62
2021/12/24 04:31:57;;;;;;;4.20;2.70;;;18.50;46.70;;;;;;5037085;28;20455;-62
2021/12/24 04:34:26;;;;;;;3.10;2.38;;;18.50;46.80;;;;;;5054656;28;20022;-62
2021/12/24 04:39:56;;;;;;;4.00;2.30;;;18.50;46.80;;;;;;5055005;28;20033;-67
2021/12/24 05:04:55;;;;;;;2.90;2.28;;;18.40;47.00;;;;;;4974175;28;20126;-63
2021/12/24 05:10:07;;;;;;;2.95;2.30;;;18.50;47.10;;;;;;4974038;28;20042;-63
2021/12/24 05:12:34;;;;;;;4.40;2.60;;;18.50;47.10;;;;;;4973656;28;20077;-64
2021/12/24 05:15:04;;;;;;;3.47;2.28;;;18.50;47.10;;;;;;4973544;28;20474;-63
2021/12/24 05:22:58;;;;;;;3.45;2.25;;;18.40;47.00;;;;;;4973653;28;20626;-62
2021/12/24 05:25:44;;;;;;;3.17;2.30;;;18.50;47.10;;;;;;4973118;28;20027;-63
2021/12/24 05:28:11;;;;;;;2.30;1.83;;;18.50;47.10;;;;;;4973839;28;20161;-63
2021/12/24 05:30:38;;;;;;;2.50;2.10;;;18.50;47.10;;;;;;5054018;28;20045;-63
2021/12/24 05:33:04;;;;;;;2.95;2.40;;;18.50;47.10;;;;;;5053821;28;20495;-63
2021/12/24 05:35:31;;;;;;;5.22;2.50;;;18.40;47.10;;;;;;5053897;28;20021;-63
2021/12/24 05:37:58;;;;;;;2.88;2.33;;;18.40;47.20;;;;;;5053831;28;20040;-61
2021/12/24 05:40:25;;;;;;;3.78;2.13;;;18.40;47.10;;;;;;5054206;28;20028;-63
2021/12/24 05:42:51;;;;;;;3.08;2.10;;;18.40;47.20;;;;;;5053554;28;20104;-63
2021/12/24 05:45:18;;;;;;;3.72;2.35;;;18.40;47.30;;;;;;5053365;28;20021;-62
2021/12/24 05:47:44;;;;;;;3.15;2.20;;;18.40;47.20;;;;;;5053840;28;20017;-62
2021/12/24 05:50:10;;;;;;;3.45;2.38;;;18.40;47.20;;;;;;5053556;28;20475;-62
2021/12/24 05:52:35;;;;;;;3.80;2.58;;;18.40;47.20;;;;;;5054010;28;20051;-63
2021/12/24 05:55:01;;;;;;;3.03;2.35;;;18.40;47.30;;;;;;5037202;28;20021;-64
2021/12/24 05:57:28;;;;;;;2.80;2.00;;;18.40;47.30;;;;;;5035270;28;20558;-64
2021/12/24 05:59:54;;;;;;;2.80;2.20;;;18.40;47.30;;;;;;5053119;28;20045;-64
2021/12/24 06:02:20;;;;;;;4.55;2.35;;;18.30;47.20;;;;;;5053200;28;20411;-63
2021/12/24 06:04:46;;;;;;;3.15;1.80;;;18.30;47.30;;;;;;5053928;28;20017;-64
2021/12/24 06:07:12;;;;;;;2.72;2.10;;;18.40;47.30;;;;;;5054148;28;20071;-64
2021/12/24 06:09:38;;;;;;;4.65;2.42;;;18.30;47.30;;;;;;5053651;28;20056;-63
2021/12/24 06:12:05;;;;;;;2.83;1.92;;;18.30;47.30;;;;;;5053780;28;20051;-64
2021/12/24 06:14:31;;;;;;;2.80;1.90;;;18.30;47.40;;;;;;5053943;28;20013;-64
2021/12/24 06:17:09;;;;;;;4.03;2.00;;;18.30;47.40;;;;;;5053341;28;20005;-64
2021/12/24 06:19:35;;;;;;;3.25;2.20;;;18.30;47.40;;;;;;5053001;28;20028;-64
2021/12/24 06:22:01;;;;;;;3.17;2.20;;;18.30;47.40;;;;;;5035423;28;20029;-64
2021/12/24 06:24:27;;;;;;;2.30;2.00;;;18.30;47.40;;;;;;5035665;28;20028;-64
2021/12/24 06:26:53;;;;;;;2.95;2.45;;;18.30;47.50;;;;;;5053408;28;20096;-64
2021/12/24 06:29:20;;;;;;;2.65;2.08;;;18.30;47.50;;;;;;5053173;28;20121;-65
2021/12/24 06:31:46;;;;;;;3.50;1.90;;;18.30;47.50;;;;;;5053697;28;20017;-65
2021/12/24 06:34:12;;;;;;;2.95;2.22;;;18.30;47.50;;;;;;5053675;28;20578;-63
2021/12/24 06:36:42;;;;;;;3.10;2.28;;;18.30;47.60;;;;;;5053284;28;20041;-64
2021/12/24 06:39:07;;;;;;;4.07;2.58;;;18.30;47.50;;;;;;5053236;28;20024;-65
2021/12/24 06:41:33;;;;;;;4.00;2.47;;;18.30;47.60;;;;;;5035142;28;20021;-64
2021/12/24 06:44:00;;;;;;;3.13;2.22;;;18.30;47.60;;;;;;5052617;28;20025;-64
2021/12/24 06:46:26;;;;;;;4.00;2.40;;;18.30;47.60;;;;;;5052994;28;20018;-64
2021/12/24 06:48:56;;;;;;;3.63;2.25;;;18.30;47.60;;;;;;5035113;28;20028;-64
2021/12/24 06:51:22;;;;;;;3.97;2.22;;;18.30;47.60;;;;;;5053130;28;20017;-64
2021/12/24 06:53:48;;;;;;;3.22;2.13;;;18.30;47.60;;;;;;5052821;28;20009;-64
2021/12/24 06:56:14;;;;;;;2.53;2.08;;;18.30;47.60;;;;;;5053894;28;20016;-64
2021/12/24 06:58:39;;;;;;;4.82;2.35;;;18.20;47.60;;;;;;5056514;28;20070;-64
2021/12/24 07:01:05;;;;;;;3.53;2.17;;;18.20;47.50;;;;;;5038966;28;20483;-64
2021/12/24 07:03:31;;;;;;;2.90;2.30;;;18.20;47.60;;;;;;5056810;28;20021;-64
2021/12/24 07:05:56;;;;;;;3.60;2.05;;;18.20;47.60;;;;;;5056545;28;20052;-64
2021/12/24 07:08:22;;;;;;;2.88;2.10;;;18.20;47.60;;;;;;5056846;28;20529;-64
2021/12/24 07:10:48;;;;;;;3.00;2.22;;;18.20;47.70;;;;;;5056491;28;20025;-64
2021/12/24 07:13:14;;;;;;;3.42;2.05;;;18.20;47.70;;;;;;5039202;28;20041;-65
2021/12/24 07:15:40;;;;;;;2.95;2.05;;;18.20;47.70;;;;;;5056611;28;20032;-64
2021/12/24 07:18:06;;;;;;;3.33;2.20;;;18.20;47.70;;;;;;5021887;28;20021;-64
2021/12/24 07:20:32;;;;;;;2.90;1.92;;;18.20;47.70;;;;;;5056268;28;20029;-65
2021/12/24 07:22:57;;;;;;;3.03;2.08;;;18.20;47.70;;;;;;5056372;28;20540;-64
2021/12/24 07:25:23;;;;;;;2.70;1.90;;;18.20;47.80;;;;;;5056111;28;20036;-64
2021/12/24 07:27:49;;;;;;;3.95;2.08;;;18.20;47.70;;;;;;5055824;28;20009;-64
2021/12/24 07:30:16;;;;;;;2.92;1.88;;;18.20;47.70;;;;;;5038447;28;20020;-65
2021/12/24 07:32:42;;;;;;;2.50;1.92;;;18.20;47.80;;;;;;5039174;28;20010;-65
2021/12/24 07:35:09;;;;;;;2.63;2.15;;;18.20;47.80;;;;;;5056306;28;20032;-64
2021/12/24 07:37:34;;;;;;;3.05;2.17;;;18.20;47.70;;;;;;5034447;28;20538;-64
2021/12/24 07:40:02;;;;;;;3.22;2.42;;;18.20;47.80;;;;;;5034638;28;20021;-64
2021/12/24 07:42:28;;;;;;;3.60;2.30;;;18.20;47.80;;;;;;5035345;28;20113;-64
2021/12/24 07:44:54;;;;;;;4.53;2.10;;;18.10;47.90;;;;;;5036099;28;20515;-65
2021/12/24 07:47:27;;;;;;;3.15;2.00;;;18.10;47.90;;;;;;5034753;28;20109;-64
2021/12/24 07:50:05;;;;;;;2.70;2.10;;;18.10;47.90;;;;;;5035765;28;20113;-64
2021/12/24 07:52:31;;;;;;;2.45;1.77;;;18.10;48.00;;;;;;5035897;28;20022;-64
2021/12/24 07:54:57;;;;;;;3.67;2.30;;;18.10;47.90;;;;;;5036485;28;20017;-65
2021/12/24 07:57:24;;;;;;;3.90;2.45;;;18.10;47.90;;;;;;5035682;28;20013;-64
2021/12/24 07:59:50;;;;;;;3.15;2.10;;;18.10;47.90;;;;;;5035434;28;20026;-64
2021/12/24 08:02:23;;;;;;;2.78;2.03;;;18.10;47.90;;;;;;5034549;28;20690;-64
2021/12/24 08:04:48;;;;;;;2.80;2.00;;;18.10;47.90;;;;;;5035801;28;20083;-64
2021/12/24 08:07:15;;;;;;;4.50;2.05;;;18.10;47.90;;;;;;5035278;28;20040;-64
2021/12/24 08:09:41;;;;;;;4.53;2.20;;;18.10;47.90;;;;;;5035270;28;20021;-65
2021/12/24 08:12:09;;;;;;;2.78;1.85;;;18.10;47.90;;;;;;5036031;28;20488;-65
2021/12/24 08:14:34;;;;;;;4.10;2.05;;;18.10;48.00;;;;;;5036290;28;20025;-65
2021/12/24 08:17:01;;;;;;;2.45;1.92;;;18.00;47.90;;;;;;5036433;28;20036;-65
2021/12/24 08:19:27;;;;;;;3.08;2.00;;;18.10;48.00;;;;;;5035312;28;20491;-65
2021/12/24 08:21:52;;;;;;;2.65;2.03;;;18.00;48.00;;;;;;5035617;28;20357;-64
2021/12/24 08:24:18;;;;;;;3.03;2.20;;;18.00;48.00;;;;;;5036438;28;20549;-66
2021/12/24 08:26:45;;;;;;;4.07;2.40;;;18.00;48.00;;;;;;5034548;28;20026;-64
2021/12/24 08:29:11;;;;;;;2.88;2.13;;;18.00;48.00;;;;;;5034721;28;20107;-65
2021/12/24 08:31:37;;;;;;;3.25;2.13;;;18.00;48.10;;;;;;5036062;28;20468;-64
2021/12/24 08:34:03;;;;;;;2.70;1.85;;;18.00;48.10;;;;;;5036145;28;20407;-65
2021/12/24 08:36:29;;;;;;;3.95;2.20;;;18.00;48.10;;;;;;5034540;28;20041;-64
2021/12/24 08:38:55;;;;;;;2.67;2.17;;;18.00;48.00;;;;;;5036279;28;20088;-64
2021/12/24 08:41:22;;;;;;;3.15;2.25;;;18.00;48.00;;;;;;5033785;28;20422;-64
2021/12/24 08:43:48;;;;;;;2.78;2.03;;;18.00;48.00;;;;;;5034797;28;20045;-65
2021/12/24 08:46:13;;;;;;;2.63;2.10;;;18.00;48.10;;;;;;5033195;28;20056;-64
2021/12/24 08:48:40;;;;;;;3.78;2.08;;;18.00;48.10;;;;;;5034654;28;20030;-64
2021/12/24 08:51:05;;;;;;;2.95;1.90;;;18.00;48.20;;;;;;5033402;28;20545;-63
2021/12/24 08:53:31;;;;;;;3.15;2.00;;;18.00;48.20;;;;;;5034932;28;20085;-65
2021/12/24 08:55:57;;;;;;;2.28;2.03;;;18.00;48.10;;;;;;5033306;28;20056;-65
2021/12/24 08:58:23;;;;;;;2.65;1.80;;;18.00;48.20;;;;;;5033709;28;20024;-65
2021/12/24 09:00:49;;;;;;;3.67;2.13;;;18.00;48.10;;;;;;5034709;28;20057;-65
2021/12/24 09:03:15;;;;;;;4.10;2.45;;;18.00;48.10;;;;;;5034986;28;20060;-64
2021/12/24 09:05:41;;;;;;;2.47;1.88;;;18.00;48.10;;;;;;5033528;28;20427;-65
2021/12/24 09:08:07;;;;;;;2.47;1.80;;;18.00;48.20;;;;;;5034605;28;20029;-64
2021/12/24 09:10:33;;;;;;;2.42;2.10;;;18.00;48.20;;;;;;5034818;28;20059;-64
2021/12/24 09:13:00;;;;;;;3.22;2.17;;;18.00;48.20;;;;;;5034590;28;20148;-64
2021/12/24 09:15:29;;;;;;;3.38;2.22;;;18.00;48.20;;;;;;5033384;28;20392;-63
2021/12/24 09:17:56;;;;;;;2.63;1.70;;;18.00;48.20;;;;;;5033021;28;20096;-65
2021/12/24 09:20:27;;;;;;;3.15;2.13;;;18.00;48.20;;;;;;5034220;28;20021;-65
2021/12/24 09:22:55;;;;;;;2.72;1.90;;;18.00;48.30;;;;;;5034227;28;20015;-64
2021/12/24 09:25:22;;;;;;;3.63;2.20;;;18.00;48.20;;;;;;5033390;28;20057;-64
2021/12/24 09:27:48;;;;;;;3.65;2.10;;;18.00;48.30;;;;;;5034402;28;20014;-63
2021/12/24 09:30:15;;;;;;;2.83;1.80;;;18.00;48.30;;;;;;5034257;28;20045;-64
2021/12/24 09:32:41;;;;;;;3.28;2.08;;;18.00;48.30;;;;;;5033879;28;20010;-64
2021/12/24 09:35:08;;;;;;;5.22;2.10;;;18.00;48.30;;;;;;5034173;28;20092;-64
2021/12/24 09:37:34;;;;;;;2.85;1.83;;;18.00;48.30;;;;;;5050205;28;20043;-64
2021/12/24 09:40:03;;;;;;;3.55;2.03;;;18.00;48.20;;;;;;5053805;28;20033;-65
2021/12/24 09:42:30;;;;;;;3.30;1.88;;;18.00;48.30;;;;;;5054148;28;20021;-64
2021/12/24 09:44:56;;;;;;;5.15;2.20;;;18.00;48.30;;;;;;5054016;28;20021;-66
2021/12/24 09:47:25;;;;;;;3.88;2.10;;;17.90;48.30;;;;;;5053877;28;20028;-65
2021/12/24 09:49:51;;;;;;;4.95;1.88;;;18.00;48.30;;;;;;5054331;28;20021;-65
2021/12/24 09:52:17;;;;;;;2.70;2.03;;;17.90;48.30;;;;;;5054133;28;20066;-65
2021/12/24 09:54:46;;;;;;;3.20;1.80;;;17.90;48.30;;;;;;5054487;28;20066;-65
2021/12/24 09:57:12;;;;;;;5.72;2.10;;;17.90;48.20;;;;;;5053351;28;20028;-65
2021/12/24 09:59:37;;;;;;;3.25;2.10;;;17.90;48.20;;;;;;5053975;28;20013;-66
2021/12/24 10:02:04;;;;;;;3.38;2.03;;;17.90;48.30;;;;;;5053849;28;20021;-64
2021/12/24 10:04:31;;;;;;;3.13;2.00;;;17.90;48.30;;;;;;5053368;28;20107;-64
2021/12/24 10:07:04;;;;;;;3.00;1.73;;;17.90;48.40;;;;;;5052979;28;20475;-63
2021/12/24 10:09:49;;;;;;;2.63;1.73;;;17.90;48.40;;;;;;5051758;28;20083;-65
2021/12/24 10:12:39;;;;;;;3.17;2.08;;;17.90;48.30;;;;;;5053169;28;20013;-65
2021/12/24 10:15:06;;;;;;;3.70;2.17;;;17.90;48.30;;;;;;5053647;28;20088;-65
2021/12/24 10:17:34;;;;;;;3.15;1.95;;;17.90;48.30;;;;;;5053324;28;20020;-64
2021/12/24 10:20:04;;;;;;;3.03;2.03;;;17.90;48.40;;;;;;5053273;28;20025;-65
2021/12/24 10:22:43;;;;;;;3.38;2.50;;;17.90;48.30;;;;;;5035712;28;20083;-65
2021/12/24 10:25:13;;;;;;;2.63;2.10;;;17.90;48.40;;;;;;5037298;28;20044;-66
2021/12/24 10:27:39;;;;;;;3.33;1.75;;;17.90;48.30;;;;;;5054509;28;20076;-65
2021/12/24 10:30:21;;;;;;;3.05;1.77;;;17.90;48.40;;;;;;5055914;28;20065;-65
2021/12/24 10:32:48;;;;;;;2.13;1.70;;;17.90;48.40;;;;;;5040847;28;20025;-65
2021/12/24 10:35:25;;;;;;;4.03;2.20;;;17.90;48.40;;;;;;5057944;28;20067;-64
2021/12/24 10:38:16;;;;;;;3.47;1.90;;;17.90;48.40;;;;;;5057897;28;20098;-64
2021/12/24 10:40:53;;;;;;;2.70;1.92;;;17.90;48.30;;;;;;5058050;28;20017;-65
2021/12/24 10:43:28;;;;;;;2.42;1.83;;;17.90;48.40;;;;;;5058391;28;20025;-65
2021/12/24 10:46:17;;;;;;;3.15;1.90;;;17.90;48.40;;;;;;5058714;28;20009;-65
2021/12/24 10:49:08;;;;;;;2.88;2.00;;;17.80;48.40;;;;;;5058094;28;20036;-65
2021/12/24 10:51:57;;;;;;;3.22;1.98;;;17.90;48.40;;;;;;5057719;28;20143;-64
2021/12/24 10:54:23;;;;;;;2.40;1.80;;;17.90;48.50;;;;;;5057469;28;20614;-65
2021/12/24 10:56:49;;;;;;;2.58;1.98;;;17.90;48.40;;;;;;5057989;28;20056;-64
2021/12/24 10:59:15;;;;;;;2.78;1.88;;;17.90;48.40;;;;;;5040256;28;20381;-64
2021/12/24 11:01:41;;;;;;;3.75;2.40;;;17.90;48.40;;;;;;5057619;28;20021;-64
2021/12/24 11:04:08;;;;;;;3.20;2.03;;;17.80;48.40;;;;;;5023497;28;20025;-64
2021/12/24 11:06:34;;;;;;;2.38;1.95;;;17.90;48.50;;;;;;5040516;28;20020;-65
2021/12/24 11:09:00;;;;;;;2.50;1.80;;;17.90;48.50;;;;;;5039274;28;20029;-64
2021/12/24 11:11:35;;;;;;;3.50;2.13;;;17.80;48.50;;;;;;5057131;28;20104;-64
2021/12/24 11:14:01;;;;;;;2.42;1.88;;;17.80;48.50;;;;;;5039941;28;20017;-64
2021/12/24 11:16:27;;;;;;;3.22;2.25;;;17.80;48.50;;;;;;5056924;28;20036;-65
2021/12/24 11:18:56;;;;;;;2.33;1.90;;;17.90;48.50;;;;;;5056887;28;20025;-65
2021/12/24 11:21:24;;;;;;;3.95;2.03;;;17.80;48.50;;;;;;5056976;28;20009;-64
2021/12/24 11:23:50;;;;;;;2.97;2.22;;;17.80;48.50;;;;;;5057168;28;20547;-63
2021/12/24 11:26:30;;;;;;;3.38;2.13;;;17.80;48.50;;;;;;5057062;28;20017;-65
2021/12/24 11:28:57;;;;;;;2.90;1.77;;;17.90;48.60;;;;;;5056537;28;20021;-64
2021/12/24 11:31:25;;;;;;;3.47;2.08;;;17.80;48.50;;;;;;5056921;28;20036;-65
2021/12/24 11:33:52;;;;;;;2.15;1.75;;;17.80;48.50;;;;;;5056508;28;20014;-65
2021/12/24 11:36:18;;;;;;;2.67;1.95;;;17.80;48.60;;;;;;5056078;28;20419;-65
2021/12/24 11:38:52;;;;;;;2.97;1.70;;;17.80;48.50;;;;;;5056310;28;20017;-64
2021/12/24 11:41:20;;;;;;;2.28;2.05;;;17.80;48.60;;;;;;5055560;28;20052;-64
2021/12/24 11:43:49;;;;;;;3.30;2.10;;;17.80;48.50;;;;;;5056156;28;20513;-64
2021/12/24 11:46:17;;;;;;;3.90;2.17;;;17.80;48.70;;;;;;5056072;28;20025;-64
2021/12/24 11:48:44;;;;;;;3.03;2.00;;;17.80;48.60;;;;;;5056434;28;20047;-64
2021/12/24 11:51:24;;;;;;;2.95;1.95;;;17.80;48.60;;;;;;5055830;28;20017;-64
2021/12/24 11:53:51;;;;;;;2.45;1.73;;;17.80;48.60;;;;;;5056450;28;20037;-64
2021/12/24 11:56:17;;;;;;;3.47;1.80;;;17.80;48.60;;;;;;5038227;28;20491;-64
2021/12/24 11:58:51;;;;;;;3.58;2.08;;;17.70;48.60;;;;;;5038187;28;20024;-65
2021/12/24 12:01:21;;;;;;;3.33;1.80;;;17.80;48.70;;;;;;5056020;28;20056;-64
2021/12/24 12:03:52;;;;;;;2.15;1.75;;;17.80;48.70;;;;;;5056042;28;20017;-64
2021/12/24 12:06:20;;;;;;;3.03;2.08;;;17.80;48.60;;;;;;5055713;28;20045;-64
2021/12/24 12:08:53;;;;;;;3.20;2.10;;;17.80;48.70;;;;;;5055667;28;20095;-64
2021/12/24 12:11:25;;;;;;;3.03;2.13;;;17.80;48.70;;;;;;5056141;28;20021;-65
2021/12/24 12:13:54;;;;;;;3.67;2.00;;;17.70;48.60;;;;;;5055765;28;20021;-65
2021/12/24 12:16:24;;;;;;;4.13;2.33;;;17.70;48.70;;;;;;5055458;28;20463;-64
2021/12/24 12:19:16;;;;;;;2.72;1.70;;;17.70;48.70;;;;;;5055925;28;20024;-65
2021/12/24 12:25:02;;;;;;;2.72;1.65;;;17.70;48.60;;;;;;5055603;28;20041;-64
2021/12/24 12:27:47;;;;;;;3.88;1.88;;;17.70;48.70;;;;;;5055090;28;20025;-65
2021/12/24 12:30:21;;;;;;;2.65;1.80;;;17.70;48.70;;;;;;5054891;28;20037;-65
2021/12/24 12:32:47;;;;;;;2.65;1.75;;;17.70;48.80;;;;;;5055218;28;20029;-65
2021/12/24 12:35:13;;;;;;;3.80;2.10;;;17.70;48.70;;;;;;5037204;28;20066;-64
2021/12/24 12:37:43;;;;;;;2.60;2.00;;;17.70;48.70;;;;;;5036777;28;20474;-64
2021/12/24 12:40:18;;;;;;;3.47;2.05;;;17.70;48.70;;;;;;5054704;28;20035;-64
2021/12/24 12:42:50;;;;;;;2.20;1.85;;;17.70;48.70;;;;;;5054796;28;20021;-65
2021/12/24 12:45:41;;;;;;;2.85;1.90;;;17.70;48.70;;;;;;5054616;28;20074;-64
2021/12/24 12:48:09;;;;;;;2.75;2.00;;;17.70;48.60;;;;;;5041511;28;20043;-64
2021/12/24 12:50:36;;;;;;;3.17;1.92;;;17.70;48.60;;;;;;5054776;28;20071;-64
2021/12/24 12:53:25;;;;;;;2.55;1.83;;;17.70;48.70;;;;;;5037097;28;20017;-64
2021/12/24 12:56:10;;;;;;;2.30;1.90;;;17.70;48.70;;;;;;5054716;28;20013;-63
2021/12/24 12:58:36;;;;;;;2.50;1.80;;;17.70;48.80;;;;;;5037426;28;20406;-64
2021/12/24 13:01:06;;;;;;;2.63;1.92;;;17.70;48.80;;;;;;5055268;28;20047;-63
2021/12/24 13:03:35;;;;;;;2.72;1.85;;;17.70;48.80;;;;;;5055411;28;20104;-63
2021/12/24 13:06:05;;;;;;;4.47;2.25;;;17.70;48.70;;;;;;5055215;28;20163;-65
2021/12/24 13:08:34;;;;;;;2.63;2.05;;;17.70;48.60;;;;;;5055668;28;20040;-65
2021/12/24 13:11:08;;;;;;;2.83;1.85;;;17.70;48.70;;;;;;5055542;28;20009;-63
2021/12/24 13:13:54;;;;;;;2.63;1.95;;;17.70;48.70;;;;;;5055173;28;20017;-64
2021/12/24 13:16:31;;;;;;;3.30;1.55;;;17.70;48.70;;;;;;5054946;28;20013;-64
2021/12/24 13:19:09;;;;;;;2.58;1.92;;;17.70;48.70;;;;;;5054809;28;20108;-63
2021/12/24 13:24:18;;;;;;;2.80;2.03;;;17.70;48.80;;;;;;5054894;28;20029;-63
2021/12/24 13:26:44;;;;;;;2.20;1.80;;;17.70;48.70;;;;;;5054325;28;20097;-64
2021/12/24 13:29:16;;;;;;;2.33;1.83;;;17.70;48.70;;;;;;5035814;28;20021;-63
2021/12/24 13:31:49;;;;;;;2.78;2.05;;;17.70;48.70;;;;;;5037389;28;20091;-63
2021/12/24 13:34:16;;;;;;;2.20;1.73;;;17.70;48.70;;;;;;5054750;28;20009;-64
2021/12/24 13:36:41;;;;;;;2.58;2.00;;;17.70;48.70;;;;;;5054196;28;20049;-65
2021/12/24 13:39:11;;;;;;;2.90;2.00;;;17.70;48.70;;;;;;5054504;28;20024;-63
2021/12/24 13:41:38;;;;;;;3.30;2.00;;;17.70;48.70;;;;;;5054225;28;20013;-64
2021/12/24 13:44:05;;;;;;;2.50;1.80;;;17.70;48.70;;;;;;5054620;28;20080;-64
2021/12/24 13:46:36;;;;;;;2.00;1.80;;;17.60;48.70;;;;;;5054119;28;20053;-64
2021/12/24 13:54:34;;;;;;;5.72;2.03;;;17.60;48.80;;;;;;5055114;28;20092;-65
2021/12/24 13:57:00;;;;;;;3.47;1.77;;;17.60;48.70;;;;;;5039496;28;20025;-63
2021/12/24 13:59:26;;;;;;;3.90;1.90;;;17.60;48.80;;;;;;5054031;28;20463;-63
2021/12/24 14:01:52;;;;;;;3.55;1.80;;;17.70;48.80;;;;;;5054057;28;20051;-64
2021/12/24 14:04:19;;;;;;;2.58;2.03;;;17.60;48.80;;;;;;5053032;28;20017;-64
2021/12/24 14:06:48;;;;;;;2.00;1.70;;;17.60;48.80;;;;;;5053488;28;20022;-64
2021/12/24 14:09:24;;;;;;;5.13;1.98;;;17.60;48.80;;;;;;5053426;28;20546;-64
2021/12/24 14:11:52;;;;;;;1.90;1.70;;;17.60;48.80;;;;;;5053745;28;20017;-64
2021/12/24 14:14:31;;;;;;;2.80;1.83;;;17.60;48.90;;;;;;5053559;28;20092;-63
2021/12/24 14:19:43;;;;;;;2.75;2.00;;;17.60;48.90;;;;;;5053619;28;20049;-63
2021/12/24 14:22:13;;;;;;;3.20;2.00;;;17.60;48.80;;;;;;5036643;28;20487;-63
2021/12/24 14:24:56;;;;;;;4.28;2.00;;;17.60;48.80;;;;;;5053703;28;20045;-63
2021/12/24 14:27:29;;;;;;;2.63;1.65;;;17.60;48.90;;;;;;5053266;28;20020;-63
2021/12/24 14:29:57;;;;;;;2.70;1.90;;;17.60;48.90;;;;;;5052609;28;20021;-63
2021/12/24 14:32:36;;;;;;;3.33;2.00;;;17.60;48.90;;;;;;5053092;28;20085;-63
2021/12/24 14:35:16;;;;;;;2.90;1.73;;;17.50;48.90;;;;;;5053030;28;20059;-63
2021/12/24 14:37:43;;;;;;;2.80;1.80;;;17.60;48.90;;;;;;5052588;28;20048;-63
2021/12/24 14:40:09;;;;;;;3.28;2.05;;;17.50;48.90;;;;;;5053210;28;20567;-63
2021/12/24 14:42:39;;;;;;;2.13;1.63;;;17.50;48.90;;;;;;5052813;28;20112;-63
2021/12/24 14:45:25;;;;;;;3.03;1.80;;;17.50;49.00;;;;;;5053155;28;20013;-64
2021/12/24 14:48:26;;;;;;;2.47;1.73;;;17.50;49.00;;;;;;5053059;28;20013;-63
2021/12/24 14:50:58;;;;;;;2.28;1.50;;;17.50;48.90;;;;;;5031047;28;20036;-63
2021/12/24 14:53:24;;;;;;;3.15;1.80;;;17.60;49.00;;;;;;5052929;28;20557;-63
2021/12/24 14:55:53;;;;;;;2.38;1.75;;;17.50;49.00;;;;;;5052571;28;20485;-63